Time;durP1;ratioP1;P1;durP2;ratioP2;P2;SDS_P1;SDS_P2;PMS_P1;PMS_P2;Temp;Humidity;BMP_temperature;BMP_pressure;BME280_temperature;BME280_humidity;BME280_pressure;Samples;Min_cycle;Max_cycle;Signal;HPM_P1;HPM_P2
2024/02/25 00:04:27;;;;;;;25.10;17.60;;;;;;;3.21;91.75;99389.31;217494;1260;139699;-71
2024/02/25 00:09:32;;;;;;;30.30;17.00;;;;;;;3.23;91.78;99397.47;217441;1262;140438;-73
2024/02/25 00:14:37;;;;;;;34.70;20.10;;;;;;;3.23;91.68;99398.52;217468;1260;140999;-75
2024/02/25 00:19:41;;;;;;;23.40;16.30;;;;;;;3.24;91.92;99390.10;217759;1259;139704;-74
2024/02/25 00:24:45;;;;;;;40.60;19.70;;;;;;;3.24;91.75;99386.61;217809;1259;140972;-73
2024/02/25 00:29:50;;;;;;;22.90;17.00;;;;;;;3.26;91.82;99384.80;217835;1258;140323;-74
2024/02/25 00:34:55;;;;;;;30.20;18.40;;;;;;;3.26;91.86;99389.17;217633;1260;139742;-72
2024/02/25 00:39:59;;;;;;;23.70;14.20;;;;;;;3.26;91.66;99391.52;217602;1263;141645;-72
2024/02/25 00:45:03;;;;;;;25.70;17.50;;;;;;;3.24;91.91;99388.60;217556;1260;140684;-72
2024/02/25 00:50:09;;;;;;;31.80;19.90;;;;;;;3.22;91.80;99389.60;217372;1260;139928;-73
2024/02/25 00:55:13;;;;;;;26.80;17.80;;;;;;;3.18;91.92;99388.44;217484;1260;139650;-74
2024/02/25 01:00:19;;;;;;;39.60;24.60;;;;;;;3.15;91.71;99391.66;218173;1260;142248;-73
2024/02/25 01:05:23;;;;;;;32.90;18.20;;;;;;;3.06;91.74;99395.02;218698;1260;140457;-74
2024/02/25 01:10:28;;;;;;;28.00;18.80;;;;;;;3.02;91.83;99395.55;220301;1259;244874;-74
2024/02/25 01:15:31;;;;;;;32.50;18.20;;;;;;;3.03;92.04;99400.90;220250;1256;140556;-72
2024/02/25 01:20:35;;;;;;;37.20;20.60;;;;;;;3.09;92.12;99399.29;220119;1257;140477;-72
2024/02/25 01:25:39;;;;;;;30.80;20.60;;;;;;;3.17;92.19;99395.08;217323;1256;140449;-72
2024/02/25 01:30:45;;;;;;;25.40;17.10;;;;;;;3.24;92.46;99395.08;217292;1259;139926;-73
2024/02/25 01:35:49;;;;;;;22.10;15.60;;;;;;;3.29;92.69;99397.09;218177;1260;141156;-74
2024/02/25 01:40:53;;;;;;;28.60;18.00;;;;;;;3.34;92.77;99386.98;218998;1257;140597;-73
2024/02/25 01:45:57;;;;;;;30.90;16.40;;;;;;;3.38;92.81;99378.67;217242;1260;141060;-75
2024/02/25 01:51:02;;;;;;;34.10;17.30;;;;;;;3.45;92.89;99374.85;217332;1259;140438;-73
2024/02/25 01:56:06;;;;;;;27.00;17.20;;;;;;;3.49;92.86;99373.13;217192;1257;139678;-73
2024/02/25 02:01:14;;;;;;;22.50;16.10;;;;;;;3.51;92.72;99371.06;217387;1257;139815;-72
2024/02/25 02:06:18;;;;;;;23.70;15.00;;;;;;;3.50;92.75;99364.77;217409;1257;140439;-73
2024/02/25 02:11:22;;;;;;;26.00;15.70;;;;;;;3.52;92.72;99359.55;217214;1260;139654;-74
2024/02/25 02:16:26;;;;;;;33.20;19.90;;;;;;;3.50;92.86;99353.91;217553;1260;139667;-74
2024/02/25 02:21:30;;;;;;;28.90;16.00;;;;;;;3.50;92.93;99359.51;216977;1260;139731;-74
2024/02/25 02:26:34;;;;;;;24.50;15.50;;;;;;;3.51;92.86;99364.38;216969;1260;139896;-74
2024/02/25 02:31:38;;;;;;;29.90;17.50;;;;;;;3.49;92.81;99354.06;217152;1257;139638;-75
2024/02/25 02:36:44;;;;;;;25.60;17.70;;;;;;;3.47;92.84;99347.89;217172;1260;229940;-74
2024/02/25 02:41:48;;;;;;;26.10;17.70;;;;;;;3.45;92.81;99352.19;217280;1257;140590;-74
2024/02/25 02:46:53;;;;;;;21.70;16.40;;;;;;;3.42;92.68;99357.84;217456;1257;139710;-74
2024/02/25 02:51:59;;;;;;;26.90;17.60;;;;;;;3.36;92.81;99356.42;216987;1260;139602;-74
2024/02/25 02:57:03;;;;;;;26.70;16.90;;;;;;;3.34;92.90;99359.02;220060;1257;140229;-75
2024/02/25 03:02:06;;;;;;;30.20;18.20;;;;;;;3.35;92.97;99352.91;217404;1260;140784;-73
2024/02/25 03:07:10;;;;;;;26.60;15.60;;;;;;;3.39;93.15;99354.63;217423;1261;139312;-74
2024/02/25 03:12:15;;;;;;;32.50;19.50;;;;;;;3.43;93.22;99346.02;217206;1261;139593;-74
2024/02/25 03:17:20;;;;;;;27.00;16.50;;;;;;;3.48;93.25;99351.88;216996;1260;140774;-73
2024/02/25 03:22:24;;;;;;;27.70;16.40;;;;;;;3.49;93.05;99348.11;217038;1260;139729;-74
2024/02/25 03:27:28;;;;;;;28.60;18.10;;;;;;;3.46;93.02;99345.10;217452;1257;140451;-72
2024/02/25 03:32:32;;;;;;;32.20;19.10;;;;;;;3.49;93.23;99343.38;217187;1259;139531;-73
2024/02/25 03:37:36;;;;;;;25.80;17.50;;;;;;;3.53;93.41;99340.91;217506;1260;141290;-73
2024/02/25 03:42:40;;;;;;;27.30;17.80;;;;;;;3.58;93.49;99345.39;216958;1258;140720;-73
2024/02/25 03:47:44;;;;;;;26.60;16.90;;;;;;;3.60;93.45;99341.95;219360;1256;140880;-74
2024/02/25 03:52:48;;;;;;;27.40;17.70;;;;;;;3.58;93.18;99338.20;217497;1258;140748;-73
2024/02/25 03:57:52;;;;;;;18.50;13.50;;;;;;;3.55;92.97;99341.13;217361;1257;140482;-73
2024/02/25 04:02:55;;;;;;;27.50;17.40;;;;;;;3.50;92.91;99338.55;217480;1260;140797;-73
2024/02/25 04:07:59;;;;;;;31.30;17.00;;;;;;;3.46;93.10;99335.04;217211;1260;140908;-73
2024/02/25 04:13:03;;;;;;;27.00;16.70;;;;;;;3.41;92.90;99337.94;217301;1257;140373;-73
2024/02/25 04:18:07;;;;;;;28.10;18.20;;;;;;;3.34;92.90;99329.84;217264;1260;140109;-73
2024/02/25 04:23:13;;;;;;;29.60;17.10;;;;;;;3.30;92.99;99327.19;217114;1260;139628;-73
2024/02/25 04:28:17;;;;;;;31.00;18.20;;;;;;;3.29;93.09;99326.49;217049;1257;140097;-73
2024/02/25 04:33:20;;;;;;;25.30;16.10;;;;;;;3.27;92.89;99328.02;217230;1256;140707;-76
2024/02/25 04:38:25;;;;;;;21.10;12.90;;;;;;;3.20;92.72;99326.21;217282;1257;141875;-73
2024/02/25 04:43:29;;;;;;;25.30;13.70;;;;;;;3.16;93.12;99324.16;217433;1260;140190;-73
2024/02/25 04:48:33;;;;;;;24.20;15.70;;;;;;;3.10;93.14;99324.58;217088;1260;139451;-75
2024/02/25 04:53:38;;;;;;;23.70;15.10;;;;;;;3.03;92.95;99322.30;220274;1255;140713;-76
2024/02/25 04:58:42;;;;;;;25.80;16.00;;;;;;;2.95;92.92;99315.67;220318;1256;141399;-75
2024/02/25 05:03:46;;;;;;;25.60;16.90;;;;;;;2.92;93.04;99315.23;220425;1255;140886;-74
2024/02/25 05:08:50;;;;;;;30.40;18.20;;;;;;;2.90;92.75;99317.09;220307;1256;140648;-74
2024/02/25 05:13:55;;;;;;;22.60;14.80;;;;;;;2.87;92.97;99316.27;219332;1256;140148;-74
2024/02/25 05:18:59;;;;;;;23.30;13.80;;;;;;;2.87;93.26;99314.09;217231;1259;139524;-74
2024/02/25 05:24:04;;;;;;;23.60;14.50;;;;;;;2.88;93.29;99324.25;217046;1260;150767;-75
2024/02/25 05:29:08;;;;;;;21.00;14.10;;;;;;;2.91;93.59;99319.65;217202;1256;140377;-73
2024/02/25 05:34:12;;;;;;;22.00;14.20;;;;;;;2.93;93.99;99322.98;217168;1255;140638;-73
2024/02/25 05:39:17;;;;;;;19.00;12.20;;;;;;;2.96;94.06;99328.39;217002;1260;140126;-72
2024/02/25 05:44:25;;;;;;;25.90;14.10;;;;;;;3.00;94.14;99341.08;217079;1260;140133;-73
2024/02/25 05:49:31;;;;;;;26.20;15.80;;;;;;;3.05;94.51;99349.20;219006;1255;140740;-74
2024/02/25 05:54:35;;;;;;;20.60;14.90;;;;;;;3.16;94.81;99351.55;217164;1260;140890;-74
2024/02/25 05:59:40;;;;;;;21.50;15.00;;;;;;;3.26;95.05;99342.48;217329;1256;140468;-74
2024/02/25 06:04:44;;;;;;;19.10;13.10;;;;;;;3.34;95.01;99328.79;217312;1260;139793;-74
2024/02/25 06:09:48;;;;;;;21.40;14.40;;;;;;;3.39;94.83;99321.40;217353;1256;139717;-73
2024/02/25 06:14:52;;;;;;;21.00;14.40;;;;;;;3.42;94.55;99325.54;217141;1256;141812;-72
2024/02/25 06:19:56;;;;;;;28.60;17.90;;;;;;;3.43;94.42;99322.19;217306;1256;140211;-73
2024/02/25 06:25:00;;;;;;;25.00;15.20;;;;;;;3.53;94.81;99325.75;217294;1260;140546;-75
2024/02/25 06:30:08;;;;;;;16.90;12.60;;;;;;;3.70;94.90;99330.55;217304;1260;141832;-73
2024/02/25 06:35:12;;;;;;;19.10;13.30;;;;;;;3.83;94.72;99327.63;217796;1256;140991;-75
2024/02/25 06:40:18;;;;;;;21.20;14.70;;;;;;;3.90;94.77;99320.98;217168;1256;140571;-75
2024/02/25 06:45:22;;;;;;;25.90;15.50;;;;;;;4.00;94.66;99312.95;217109;1255;140904;-75
2024/02/25 06:50:26;;;;;;;20.50;14.10;;;;;;;4.15;94.73;99304.96;217477;1255;139702;-75
2024/02/25 06:55:30;;;;;;;20.00;12.60;;;;;;;4.31;94.76;99306.27;217761;1258;140088;-77
2024/02/25 07:00:38;;;;;;;23.00;14.10;;;;;;;4.41;95.11;99303.95;217273;1260;141049;-72
2024/02/25 07:05:43;;;;;;;18.40;14.00;;;;;;;4.56;95.35;99305.56;218995;1256;139310;-72
2024/02/25 07:10:50;;;;;;;22.90;13.10;;;;;;;4.74;95.64;99305.39;217091;1255;140089;-74
2024/02/25 07:15:54;;;;;;;20.50;13.90;;;;;;;4.93;95.92;99301.80;217268;1260;141204;-73
2024/02/25 07:20:58;;;;;;;28.00;17.90;;;;;;;5.26;96.14;99299.02;217069;1255;140911;-73
2024/02/25 07:26:01;;;;;;;25.40;16.00;;;;;;;5.96;96.63;99290.31;217062;1255;140349;-78
2024/02/25 07:31:12;;;;;;;24.60;15.10;;;;;;;7.32;97.38;99276.61;217283;1255;142117;-77
2024/02/25 07:36:17;;;;;;;24.80;15.00;;;;;;;8.55;95.98;99268.25;217338;1256;140430;-75
2024/02/25 07:41:21;;;;;;;21.70;14.40;;;;;;;9.14;93.03;99263.27;217480;1256;140742;-75
2024/02/25 07:46:27;;;;;;;22.30;15.50;;;;;;;8.95;91.11;99270.90;217176;1256;140196;-76
2024/02/25 07:51:34;;;;;;;21.80;13.70;;;;;;;9.31;92.11;99272.84;217214;1255;140915;-77
2024/02/25 07:56:38;;;;;;;19.60;13.30;;;;;;;10.09;92.12;99267.52;217064;1256;140257;-76
2024/02/25 08:01:41;;;;;;;23.40;16.10;;;;;;;10.36;89.71;99267.17;217286;1255;140750;-76
2024/02/25 08:06:45;;;;;;;22.00;15.80;;;;;;;10.44;89.07;99257.79;217245;1255;140171;-75
2024/02/25 08:11:48;;;;;;;19.00;13.40;;;;;;;10.33;87.72;99256.16;217365;1256;140724;-77
2024/02/25 08:16:52;;;;;;;19.00;13.80;;;;;;;10.32;87.86;99257.52;216991;1255;140468;-77
2024/02/25 08:21:55;;;;;;;19.10;12.70;;;;;;;10.33;87.10;99254.61;216773;1257;142390;-77
2024/02/25 08:26:59;;;;;;;27.10;16.20;;;;;;;10.26;86.68;99252.25;217019;1257;140293;-74
2024/02/25 08:32:03;;;;;;;22.10;14.90;;;;;;;10.26;86.37;99250.29;217055;1257;222578;-75
2024/02/25 08:37:07;;;;;;;20.10;13.60;;;;;;;10.15;85.83;99245.44;217215;1257;140631;-77
2024/02/25 08:42:11;;;;;;;20.20;13.30;;;;;;;10.24;86.47;99239.42;217109;1258;140606;-75
2024/02/25 08:47:16;;;;;;;24.30;14.20;;;;;;;10.40;86.36;99234.45;217111;1257;141407;-75
2024/02/25 08:52:20;;;;;;;18.50;14.10;;;;;;;10.47;85.81;99226.81;217139;1257;141664;-75
2024/02/25 08:57:30;;;;;;;25.30;14.70;;;;;;;10.50;85.13;99224.73;216990;1258;140279;-78
2024/02/25 09:02:35;;;;;;;18.00;13.10;;;;;;;10.46;84.46;99221.14;217009;1256;141324;-78
2024/02/25 09:07:38;;;;;;;21.40;14.60;;;;;;;10.52;84.68;99208.92;216719;1256;141659;-76
2024/02/25 09:12:45;;;;;;;22.50;14.60;;;;;;;10.56;83.96;99199.55;216911;1256;142147;-74
2024/02/25 09:17:54;;;;;;;27.10;19.20;;;;;;;10.65;84.24;99196.67;217092;1256;141519;-76
2024/02/25 09:23:00;;;;;;;24.50;14.20;;;;;;;10.75;83.07;99196.73;218903;1256;140434;-77
2024/02/25 09:28:05;;;;;;;18.90;13.40;;;;;;;10.76;83.25;99187.35;217542;1256;142368;-78
2024/02/25 09:33:08;;;;;;;22.00;12.50;;;;;;;11.00;83.72;99174.83;217182;1257;141259;-75
2024/02/25 09:38:13;;;;;;;18.10;11.90;;;;;;;11.26;83.21;99167.78;217351;1256;140947;-78
2024/02/25 09:43:17;;;;;;;16.80;10.80;;;;;;;11.44;82.76;99163.13;217625;1256;140419;-77
2024/02/25 09:48:20;;;;;;;15.30;11.20;;;;;;;11.70;82.55;99155.60;217360;1256;141071;-76
2024/02/25 09:53:25;;;;;;;14.60;11.50;;;;;;;11.98;82.83;99152.50;217576;1256;140907;-74
2024/02/25 09:58:29;;;;;;;14.80;10.50;;;;;;;12.24;81.73;99149.48;217361;1256;140000;-75
2024/02/25 10:03:39;;;;;;;15.80;12.10;;;;;;;12.24;80.83;99142.27;217385;1256;141091;-74
2024/02/25 10:08:52;;;;;;;19.80;11.70;;;;;;;12.47;81.06;99140.67;217452;1259;141185;-74
2024/02/25 10:13:56;;;;;;;16.00;9.00;;;;;;;12.57;80.15;99136.33;217505;1257;141012;-77
2024/02/25 10:19:00;;;;;;;9.20;7.50;;;;;;;12.81;80.16;99133.41;217509;1257;153534;-78
2024/02/25 10:24:03;;;;;;;13.50;7.70;;;;;;;13.00;79.29;99131.79;217598;1256;139775;-76
2024/02/25 10:29:07;;;;;;;11.10;7.90;;;;;;;13.18;78.75;99125.89;217534;1256;141050;-74
2024/02/25 10:34:12;;;;;;;10.50;6.20;;;;;;;13.36;78.44;99124.42;217599;1256;141516;-75
2024/02/25 10:39:16;;;;;;;9.70;7.60;;;;;;;13.55;77.68;99118.52;217575;1255;140352;-74
2024/02/25 10:44:20;;;;;;;17.00;6.80;;;;;;;13.75;77.46;99103.65;217298;1256;140493;-75
2024/02/25 10:49:26;;;;;;;11.80;5.80;;;;;;;13.91;76.49;99099.13;217541;1256;140338;-75
2024/02/25 10:54:30;;;;;;;8.90;5.40;;;;;;;14.07;75.51;99090.45;217433;1258;141787;-75
2024/02/25 10:59:34;;;;;;;7.20;4.40;;;;;;;14.18;74.65;99084.09;217764;1258;140243;-73
2024/02/25 11:04:39;;;;;;;7.40;4.60;;;;;;;14.27;74.17;99078.81;217981;1256;139805;-76
2024/02/25 11:09:43;;;;;;;8.70;4.80;;;;;;;14.37;73.67;99072.70;218403;1258;139930;-75
2024/02/25 11:14:48;;;;;;;6.60;4.50;;;;;;;14.55;73.57;99065.34;217804;1256;139268;-74
2024/02/25 11:20:03;;;;;;;15.80;4.60;;;;;;;14.72;72.65;99056.80;218191;1256;139457;-73
2024/02/25 11:25:29;;;;;;;8.70;4.20;;;;;;;14.69;71.48;99053.14;217722;1256;139750;-76
2024/02/25 11:30:43;;;;;;;5.40;3.60;;;;;;;14.62;71.07;99044.17;217490;1256;139821;-79
2024/02/25 11:35:49;;;;;;;3.90;3.40;;;;;;;14.34;70.14;99038.23;218211;1256;139991;-74
2024/02/25 11:40:56;;;;;;;4.30;3.20;;;;;;;14.03;69.43;99040.73;217554;1256;139093;-74
2024/02/25 11:46:00;;;;;;;6.00;3.00;;;;;;;13.78;69.29;99041.14;217787;1256;140115;-76
2024/02/25 11:51:04;;;;;;;6.70;3.90;;;;;;;13.96;69.50;99040.91;217672;1256;140104;-74
2024/02/25 11:56:08;;;;;;;5.50;3.80;;;;;;;14.24;69.50;99036.95;217613;1256;139425;-75
2024/02/25 12:01:14;;;;;;;4.50;3.00;;;;;;;14.25;68.56;99031.84;217897;1255;139846;-74
2024/02/25 12:06:17;;;;;;;3.60;2.10;;;;;;;14.15;67.98;99025.13;217744;1255;139152;-74
2024/02/25 12:11:22;;;;;;;4.10;2.00;;;;;;;14.08;67.11;99009.88;217717;1259;138771;-74
2024/02/25 12:16:26;;;;;;;3.70;1.90;;;;;;;14.20;67.15;99003.56;217752;1255;138997;-73
2024/02/25 12:21:29;;;;;;;4.30;1.70;;;;;;;14.44;66.87;98993.52;217501;1259;139858;-74
2024/02/25 12:26:52;;;;;;;2.60;1.00;;;;;;;14.61;66.05;98986.45;217720;1256;139723;-73
2024/02/25 12:31:57;;;;;;;4.40;1.50;;;;;;;14.64;65.63;98985.09;217908;1259;139358;-75
2024/02/25 12:37:01;;;;;;;6.00;2.20;;;;;;;14.69;65.37;98980.54;217758;1256;141046;-75
2024/02/25 12:42:06;;;;;;;2.10;1.40;;;;;;;14.67;65.08;98978.63;217882;1256;140021;-76
2024/02/25 12:47:10;;;;;;;1.90;1.20;;;;;;;14.62;64.43;98982.32;217775;1257;139804;-75
2024/02/25 12:52:18;;;;;;;2.60;1.00;;;;;;;14.62;64.10;98980.17;217605;1256;139115;-75
2024/02/25 12:57:22;;;;;;;3.00;2.10;;;;;;;14.73;64.11;98977.39;218099;1256;139468;-74
2024/02/25 13:02:26;;;;;;;2.70;1.60;;;;;;;14.96;64.03;98974.20;217795;1256;139206;-73
2024/02/25 13:07:29;;;;;;;3.50;2.50;;;;;;;15.11;63.40;98966.13;217752;1259;138943;-74
2024/02/25 13:12:34;;;;;;;1.90;1.80;;;;;;;15.13;62.78;98964.23;217458;1256;140660;-75
2024/02/25 13:17:39;;;;;;;2.50;1.80;;;;;;;15.20;62.43;98956.06;217769;1256;139335;-75
2024/02/25 13:22:43;;;;;;;1.90;1.30;;;;;;;15.02;62.11;98960.09;217554;1259;139693;-73
2024/02/25 13:27:47;;;;;;;2.90;1.60;;;;;;;14.87;61.86;98956.90;217672;1256;139060;-75
2024/02/25 13:32:50;;;;;;;4.40;1.70;;;;;;;14.72;61.88;98958.24;217885;1259;140756;-75
2024/02/25 13:37:54;;;;;;;4.60;1.40;;;;;;;14.73;61.95;98957.38;217656;1256;139151;-73
2024/02/25 13:42:59;;;;;;;5.80;2.20;;;;;;;14.71;61.45;98951.27;217675;1256;139632;-72
2024/02/25 13:48:04;;;;;;;2.30;1.40;;;;;;;14.62;61.22;98953.94;217563;1257;139976;-76
2024/02/25 13:53:09;;;;;;;1.70;1.50;;;;;;;14.56;61.56;98951.41;217771;1259;138459;-74
2024/02/25 13:58:13;;;;;;;4.40;2.40;;;;;;;14.44;61.31;98953.03;217799;1256;139998;-71
2024/02/25 14:03:17;;;;;;;4.80;2.10;;;;;;;14.21;60.92;98954.39;217628;1256;139148;-74
2024/02/25 14:08:21;;;;;;;2.80;1.80;;;;;;;14.08;61.35;98953.07;217543;1259;139575;-75
2024/02/25 14:13:25;;;;;;;3.60;2.20;;;;;;;13.98;61.66;98954.31;218069;1259;138962;-75
2024/02/25 14:18:29;;;;;;;3.40;1.40;;;;;;;13.81;61.36;98953.79;218230;1256;139879;-74
2024/02/25 14:23:33;;;;;;;3.40;1.60;;;;;;;13.67;60.88;98951.08;217665;1256;139296;-76
2024/02/25 14:28:48;;;;;;;4.30;2.30;;;;;;;13.53;60.82;98950.36;217791;1256;143655;-80
2024/02/25 14:34:01;;;;;;;3.40;1.50;;;;;;;13.39;60.90;98946.14;217717;1259;139306;-80
2024/02/25 14:39:19;;;;;;;3.00;1.80;;;;;;;13.31;60.59;98946.90;217915;1259;139130;-81
2024/02/25 14:44:24;;;;;;;2.10;1.60;;;;;;;13.15;60.74;98941.19;217633;1259;139402;-80
2024/02/25 14:49:34;;;;;;;;;;;;;;;13.09;60.82;98940.98;218149;1259;139264;-78
2024/02/25 14:54:38;;;;;;;3.50;3.00;;;;;;;13.02;61.12;98936.33;218408;1257;127274;-75
2024/02/25 14:59:45;;;;;;;3.90;2.40;;;;;;;12.97;60.98;98937.51;218008;1259;140251;-79
2024/02/25 15:04:57;;;;;;;5.00;2.50;;;;;;;12.90;61.41;98935.42;217768;1260;138851;-78
2024/02/25 15:10:02;;;;;;;2.90;2.30;;;;;;;12.85;61.45;98945.48;217630;1260;139791;-76
2024/02/25 15:15:07;;;;;;;2.50;2.10;;;;;;;12.73;61.01;98944.21;217767;1256;140839;-77
2024/02/25 15:20:16;;;;;;;3.00;2.80;;;;;;;12.61;61.38;98934.95;217487;1260;139645;-79
2024/02/25 15:25:24;;;;;;;3.10;1.90;;;;;;;12.56;61.37;98939.39;217796;1257;139716;-78
2024/02/25 15:30:38;;;;;;;2.60;2.00;;;;;;;12.56;61.67;98937.73;217829;1262;139860;-80
2024/02/25 15:35:45;;;;;;;5.60;2.50;;;;;;;12.52;61.67;98936.19;217675;1259;139864;-78
2024/02/25 15:40:56;;;;;;;2.60;1.90;;;;;;;12.42;61.54;98936.94;217591;1260;143092;-78
2024/02/25 15:46:05;;;;;;;6.90;3.60;;;;;;;12.31;61.66;98944.60;217752;1259;140491;-77
2024/02/25 15:51:31;;;;;;;3.40;2.50;;;;;;;12.19;61.52;98939.63;217921;1259;140037;-78
2024/02/25 15:56:38;;;;;;;2.40;2.00;;;;;;;12.06;61.52;98946.74;217499;1262;140901;-78
2024/02/25 16:01:43;;;;;;;4.00;2.40;;;;;;;11.96;61.73;98949.39;218398;1257;139656;-77
2024/02/25 16:06:51;;;;;;;5.30;3.00;;;;;;;11.88;61.70;98948.73;217825;1260;140229;-76
2024/02/25 16:12:07;;;;;;;7.00;2.90;;;;;;;11.76;62.05;98946.86;217340;1262;139637;-77
2024/02/25 16:17:42;;;;;;;5.30;2.50;;;;;;;11.64;62.07;98953.57;217922;1256;139391;-77
2024/02/25 16:22:54;;;;;;;3.20;2.30;;;;;;;11.54;62.10;98955.46;218421;1259;139815;-76
2024/02/25 16:28:17;;;;;;;4.20;2.90;;;;;;;11.46;62.15;98946.28;219070;1259;139727;-77
2024/02/25 16:33:31;;;;;;;2.80;2.20;;;;;;;11.39;62.44;98955.58;217474;1259;140349;-75
2024/02/25 16:38:44;;;;;;;3.60;2.20;;;;;;;11.31;62.41;98943.48;217932;1261;140091;-77
2024/02/25 16:44:17;;;;;;;4.80;2.30;;;;;;;11.24;62.52;98946.11;217458;1261;139907;-77
2024/02/25 16:49:24;;;;;;;6.90;2.60;;;;;;;11.16;62.71;98945.59;217838;1260;140065;-73
2024/02/25 16:54:42;;;;;;;5.20;2.60;;;;;;;11.11;62.96;98951.52;217691;1258;140372;-75
2024/02/25 16:59:49;;;;;;;;;;;;;;;11.04;62.82;98948.81;218623;1260;140469;-76
2024/02/25 17:05:08;;;;;;;8.40;3.80;;;;;;;10.92;62.95;98948.09;218136;1262;126171;-77
2024/02/25 17:10:26;;;;;;;5.10;2.60;;;;;;;10.86;63.06;98946.77;217594;1256;138999;-76
2024/02/25 17:15:44;;;;;;;9.60;3.30;;;;;;;10.76;63.03;98950.89;217967;1260;143330;-78
2024/02/25 17:21:04;;;;;;;8.60;4.90;;;;;;;10.64;63.14;98947.23;217437;1256;138848;-76
2024/02/25 17:26:20;;;;;;;21.60;9.20;;;;;;;10.49;63.22;98944.27;217799;1260;142863;-76
2024/02/25 17:31:36;;;;;;;19.90;10.10;;;;;;;10.26;63.32;98944.98;217414;1256;229726;-76
2024/02/25 17:36:57;;;;;;;21.40;11.40;;;;;;;10.13;63.91;98940.97;217838;1259;139528;-79
2024/02/25 17:42:10;;;;;;;22.80;11.80;;;;;;;10.03;64.22;98944.55;218349;1262;141043;-76
2024/02/25 17:47:17;;;;;;;27.70;15.10;;;;;;;9.88;64.60;98952.95;217707;1257;139365;-76
2024/02/25 17:52:30;;;;;;;29.80;13.20;;;;;;;9.73;65.10;98951.41;218750;1261;140344;-76
2024/02/25 17:57:46;;;;;;;28.30;13.40;;;;;;;9.58;65.78;98937.37;217767;1262;141004;-76
2024/02/25 18:02:52;;;;;;;23.30;10.40;;;;;;;9.48;66.51;98940.45;217591;1260;140112;-75
2024/02/25 18:07:56;;;;;;;17.20;9.00;;;;;;;9.26;66.50;98941.01;217469;1259;140186;-77
2024/02/25 18:13:02;;;;;;;24.70;11.30;;;;;;;9.05;67.21;98940.23;217797;1259;140157;-76
2024/02/25 18:18:08;;;;;;;25.60;13.90;;;;;;;8.93;67.50;98938.62;217933;1259;139757;-73
2024/02/25 18:23:14;;;;;;;33.10;16.80;;;;;;;8.70;67.54;98940.44;218572;1258;140228;-76
2024/02/25 18:28:30;;;;;;;43.70;22.10;;;;;;;8.49;67.72;98939.05;218443;1256;140104;-75
2024/02/25 18:33:52;;;;;;;31.20;16.50;;;;;;;8.32;68.07;98944.00;217712;1256;140147;-74
2024/02/25 18:39:13;;;;;;;36.50;15.50;;;;;;;8.21;68.56;98945.33;217584;1257;139937;-76
2024/02/25 18:44:20;;;;;;;23.60;14.40;;;;;;;8.04;68.88;98947.77;218028;1258;139894;-75
2024/02/25 18:49:27;;;;;;;23.70;13.30;;;;;;;7.86;69.22;98946.05;217450;1262;140715;-77
2024/02/25 18:54:45;;;;;;;25.90;12.70;;;;;;;7.68;69.66;98947.41;217961;1259;140163;-77
2024/02/25 19:00:03;;;;;;;22.60;11.30;;;;;;;7.51;69.87;98936.92;217630;1261;140754;-76
2024/02/25 19:05:13;;;;;;;17.80;10.40;;;;;;;7.33;70.02;98936.08;217748;1259;139707;-77
2024/02/25 19:10:26;;;;;;;25.20;11.30;;;;;;;7.21;70.73;98938.88;217808;1260;140414;-76
2024/02/25 19:15:49;;;;;;;26.90;12.70;;;;;;;7.12;71.11;98940.58;217720;1261;139716;-76
2024/02/25 19:20:53;;;;;;;17.90;10.30;;;;;;;7.01;71.42;98940.41;217880;1262;140245;-76
2024/02/25 19:26:12;;;;;;;;;;;;;;;;;;;;;
2024/02/25 19:31:21;;;;;;;15.30;8.00;;;;;;;6.69;71.36;98931.14;216965;1262;1157226;-78
2024/02/25 19:36:35;;;;;;;17.20;9.20;;;;;;;6.52;71.69;98933.20;218182;1260;139929;-78
2024/02/25 19:41:50;;;;;;;20.20;9.20;;;;;;;6.31;72.04;98938.80;217551;1261;140841;-76
2024/02/25 19:47:03;;;;;;;23.10;11.80;;;;;;;6.11;72.62;98932.19;217796;1260;140007;-74
2024/02/25 19:52:15;;;;;;;20.90;9.80;;;;;;;5.95;72.78;98934.11;217751;1262;139892;-74
2024/02/25 19:57:23;;;;;;;18.30;9.20;;;;;;;5.82;73.18;98938.85;217644;1261;139752;-74
2024/02/25 20:02:32;;;;;;;42.80;14.90;;;;;;;5.68;73.20;98932.33;218776;1258;219457;-75
2024/02/25 20:07:38;;;;;;;32.20;11.50;;;;;;;5.56;73.48;98937.06;217273;1258;141159;-74
2024/02/25 20:12:42;;;;;;;33.30;17.50;;;;;;;5.48;74.32;98938.60;217688;1260;140243;-75
2024/02/25 20:17:45;;;;;;;25.30;10.90;;;;;;;5.45;74.25;98939.08;218119;1257;140804;-74
2024/02/25 20:22:56;;;;;;;20.60;11.10;;;;;;;5.44;74.55;98941.13;217692;1258;139894;-73
2024/02/25 20:28:00;;;;;;;22.40;10.50;;;;;;;5.53;75.45;98937.46;217657;1257;140391;-75
2024/02/25 20:33:10;;;;;;;15.70;8.70;;;;;;;5.64;75.68;98932.91;217980;1256;140460;-71
2024/02/25 20:38:16;;;;;;;19.00;8.50;;;;;;;5.71;75.57;98928.05;217734;1260;140187;-74
2024/02/25 20:43:19;;;;;;;21.40;10.20;;;;;;;5.79;75.43;98927.04;218109;1259;141046;-71
2024/02/25 20:48:23;;;;;;;21.00;10.70;;;;;;;5.75;75.39;98925.81;217807;1259;140153;-72
2024/02/25 20:53:28;;;;;;;25.50;10.00;;;;;;;5.67;75.36;98925.42;217670;1257;140221;-72
2024/02/25 20:58:33;;;;;;;21.10;9.20;;;;;;;5.66;75.26;98927.84;217959;1257;140320;-71
2024/02/25 21:03:38;;;;;;;20.90;9.10;;;;;;;5.66;75.26;98925.77;217821;1259;139607;-72
2024/02/25 21:08:42;;;;;;;19.40;8.90;;;;;;;5.65;75.55;98921.83;217784;1258;139250;-74
2024/02/25 21:13:45;;;;;;;21.00;9.00;;;;;;;5.64;75.39;98918.86;217770;1260;140834;-72
2024/02/25 21:18:51;;;;;;;31.50;14.50;;;;;;;5.61;75.26;98913.78;218623;1258;139605;-72
2024/02/25 21:23:57;;;;;;;30.30;12.10;;;;;;;5.53;74.99;98907.33;217428;1260;141203;-72
2024/02/25 21:29:02;;;;;;;17.00;9.40;;;;;;;5.37;74.92;98909.69;217584;1259;139577;-73
2024/02/25 21:34:06;;;;;;;22.40;11.10;;;;;;;5.18;75.14;98914.73;217637;1257;140666;-71
2024/02/25 21:39:11;;;;;;;22.30;10.30;;;;;;;5.01;75.63;98910.71;217511;1257;141828;-71
2024/02/25 21:44:15;;;;;;;17.70;9.20;;;;;;;4.95;75.78;98908.27;217882;1260;140216;-71
2024/02/25 21:49:20;;;;;;;36.00;16.10;;;;;;;4.74;75.39;98900.70;217559;1258;141105;-73
2024/02/25 21:54:24;;;;;;;28.70;11.10;;;;;;;4.59;75.57;98896.09;217776;1255;140903;-71
2024/02/25 21:59:29;;;;;;;26.70;10.60;;;;;;;4.44;75.85;98899.75;217779;1256;141146;-70
2024/02/25 22:04:33;;;;;;;24.00;10.90;;;;;;;4.36;76.60;98901.75;217603;1260;140759;-72
2024/02/25 22:09:37;;;;;;;23.30;9.90;;;;;;;4.29;76.43;98898.36;218380;1256;140076;-72
2024/02/25 22:14:43;;;;;;;30.90;13.50;;;;;;;4.20;76.72;98901.73;218218;1259;140684;-70
2024/02/25 22:20:08;;;;;;;35.90;15.90;;;;;;;4.17;76.78;98903.36;217814;1258;140709;-73
2024/02/25 22:25:15;;;;;;;35.20;14.90;;;;;;;4.15;77.36;98901.88;217689;1260;140097;-73
2024/02/25 22:30:20;;;;;;;29.30;12.10;;;;;;;4.14;77.50;98907.48;218637;1256;140199;-74
2024/02/25 22:35:24;;;;;;;28.20;12.10;;;;;;;4.16;77.83;98914.98;217589;1257;139997;-72
2024/02/25 22:40:28;;;;;;;21.90;9.50;;;;;;;4.16;77.85;98909.91;217628;1259;140359;-72
2024/02/25 22:45:32;;;;;;;26.90;13.30;;;;;;;4.13;78.03;98908.02;218846;1257;140155;-73
2024/02/25 22:50:36;;;;;;;24.30;11.80;;;;;;;4.11;78.19;98903.69;218107;1256;140575;-72
2024/02/25 22:55:41;;;;;;;24.60;12.10;;;;;;;4.07;78.48;98907.14;218279;1257;140069;-75
2024/02/25 23:00:44;;;;;;;22.90;11.70;;;;;;;4.03;78.50;98906.20;217928;1254;139925;-71
2024/02/25 23:05:49;;;;;;;25.60;13.80;;;;;;;3.94;78.43;98903.48;217838;1256;140637;-72
2024/02/25 23:10:59;;;;;;;30.00;14.50;;;;;;;3.94;79.18;98898.69;218080;1259;142490;-71
2024/02/25 23:16:04;;;;;;;26.90;13.20;;;;;;;3.99;79.24;98893.73;217586;1260;139758;-71
2024/02/25 23:21:08;;;;;;;29.70;11.60;;;;;;;3.95;79.17;98886.91;217677;1257;141751;-71